Nearby METAR Reports

 

KBAX - Bad Axe, Michigan, USA
Distance from station: ESE 22mi, 35km
Updated: Sun, 17-Feb-2019 8:35pm EST
Overcast
Overcast
 Wind from NE
Wind: NE 6 mph , 9 km/h
Temperature: 23°F , -5°C
Wind Chill: 16°F , -9°C
Dew Point: 18°F , -8°C
Humidity: 80%
Barometer: 29.92 inHg , 1013.2 hPa
Clouds: Overcast
Visibility: 10 miles , 16 km
Cloud details: Overcast 2100 ft
2019/02/18 01:35 KBAX 180135Z AUTO 05005KT 10SM OVC021 M05/M08 A2992 RMK AO2 T10511085
KFNT - Flint, Michigan, USA
Distance from station: SSW 68mi, 109km
Updated: Sun, 17-Feb-2019 8:46pm EST
Light snow, Mist, Overcast
Light snow, Mist, Overcast
 Wind from NNE
Wind: NNE 12 mph , 19 km/h
Temperature: 21°F , -6°C
Wind Chill: 9°F , -13°C
Dew Point: 18°F , -8°C
Humidity: 86%
Barometer: 29.88 inHg , 1011.9 hPa
Summary: Light snow, Mist
Clouds: Overcast
Visibility: 1 3/4 miles , 2.8 km
Cloud details: Partly cloudy 2300 ft
Overcast 7000 ft
2019/02/18 01:46 KFNT 180146Z 02010KT 1 3/4SM -SN BR SCT023 OVC070 M06/M08 A2988 RMK AO2 P0001 T10611078
KMBS - Saginaw, Michigan, USA
Distance from station: SW 44mi, 70km
Updated: Sun, 17-Feb-2019 8:36pm EST
Light snow, Overcast
Light snow, Overcast
 Wind from NE
Wind: NE 14 mph , 22 km/h
Temperature: 23°F , -5°C
Wind Chill: 11°F , -12°C
Dew Point: 18°F , -8°C
Humidity: 80%
Barometer: 29.94 inHg , 1013.9 hPa
Summary: Light Snow
Clouds: Overcast
Visibility: 2 1/2 miles , 4 km
Cloud details: Partly cloudy 2000 ft
Partly cloudy 2400 ft
Overcast 3100 ft
2019/02/18 01:36 KMBS 180136Z 05012KT 2 1/2SM -SN SCT020 SCT024 OVC031 M05/M08 A2994 RMK AO2 SNB0054 P0000 T10501083
 
KDTW - Detroit/Wayne, Michigan, USA
Distance from station: SSE 117mi, 188km
Updated: Sun, 17-Feb-2019 8:39pm EST
Light snow, Overcast
Light snow, Overcast
 Wind from N
Wind: N 8 mph , 13 km/h
Temperature: 25°F , -4°C
Wind Chill: 16°F , -9°C
Dew Point: 19°F , -7°C
Humidity: 80%
Barometer: 29.84 inHg , 1010.5 hPa
Summary: Light Snow
Clouds: Overcast
Visibility: 1 1/2 miles , 2.4 km
Cloud details: Few Clouds 900 ft
Mostly cloudy 1500 ft
Overcast 2100 ft
2019/02/18 01:39 KDTW 180139Z 01007KT 1 1/2SM -SN FEW009 BKN015 OVC021 M04/M07 A2984 RMK AO2 SFC VIS 2 1/2 P0000 T10441072 $
KP58 - Port Hope, Michigan, USA
Distance from station: ENE 30mi, 48km
Updated: Sun, 17-Feb-2019 7:51pm EST

 Wind from ENE
Wind: ENE 15 mph , 24 km/h, Gust: 25 mph , 41 km/h
Temperature: 25°F , -4°C
Wind Chill: 13°F , -11°C
Dew Point: 18°F , -8°C
Humidity: 74%
Barometer: 29.92 inHg , 1013.2 hPa
2019/02/18 00:51 KP58 180051Z AUTO 07013G22KT M04/M08 A2992 RMK AO1 SLP144 T10441083 $
KCFS - Caro/Tuscola, Michigan, USA
Distance from station: S 31mi, 50km
Updated: Sun, 17-Feb-2019 8:36pm EST
Overcast
Overcast
 Wind from NNE
Wind: NNE 6 mph , 9 km/h
Temperature: 23°F , -5°C
Wind Chill: 16°F , -9°C
Dew Point: 16°F , -9°C
Humidity: 74%
Barometer: 29.91 inHg , 1012.9 hPa
Clouds: Overcast
Visibility: 10 miles , 16 km
Cloud details: Partly cloudy 2600 ft
Overcast 4600 ft
2019/02/18 01:36 KCFS 180136Z AUTO 03005KT 10SM SCT026 OVC046 M05/M09 A2991 RMK AO2 T10551088
 
KPHN - Port Huron, Michigan, USA
Distance from station: SSE 81mi, 131km
Updated: Sun, 17-Feb-2019 8:35pm EST
Light snow, Overcast
Light snow, Overcast
 Wind from NE
Wind: NE 10 mph , 17 km/h
Temperature: 23°F , -5°C
Wind Chill: 13°F , -11°C
Dew Point: 21°F , -6°C
Humidity: 93%
Barometer: 29.86 inHg , 1011.2 hPa
Summary: Light Snow
Clouds: Overcast
Visibility: 1 3/4 miles , 2.8 km
Cloud details: Overcast 1000 ft
2019/02/18 01:35 KPHN 180135Z AUTO 05009KT 1 3/4SM -SN OVC010 M05/M06 A2986 RMK AO2
KPTK - Pontiac, Michigan, USA
Distance from station: S 86mi, 138km
Updated: Sun, 17-Feb-2019 8:39pm EST
Light snow, Mist, Overcast
Light snow, Mist, Overcast
 Wind from NNE
Wind: NNE 8 mph , 13 km/h
Temperature: 21°F , -6°C
Wind Chill: 11°F , -12°C
Dew Point: 19°F , -7°C
Humidity: 93%
Barometer: 29.83 inHg , 1010.2 hPa
Summary: Light snow, Mist
Clouds: Overcast
Visibility: 3 miles , 5 km
Cloud details: Partly cloudy 1600 ft
Overcast 2800 ft
2019/02/18 01:39 KPTK 180139Z 02007KT 3SM -SN BR SCT016 OVC028 M06/M07 A2983 RMK AO2 P0001 T10561072 $
KMTC - Selfridge Angb, Michigan, USA
Distance from station: SSE 94mi, 151km
Updated: Sun, 17-Feb-2019 8:42pm EST
Light snow, Overcast
Light snow, Overcast
 Wind from N
Wind: N 8 mph , 13 km/h
Temperature: 23°F , -5°C
Wind Chill: 14°F , -10°C
Dew Point: 23°F , -5°C
Humidity: 100%
Barometer: 29.84 inHg , 1010.5 hPa
Summary: Light Snow
Clouds: Overcast
Visibility: 3 miles , 5 km
Cloud details: Partly cloudy 1000 ft
Overcast 1800 ft
2019/02/18 01:42 KMTC 180142Z 01007KT 3SM -SN SCT010 OVC018 M05/M05 A2984 RMK AO2A ALSTG ESTMD $